sensor_id;sensor_type;location;lat;lon;timestamp;temperature;humidity
50544;DHT22;41176;44.032;20.900;2023-11-22T00:01:11;10.10;99.90
50544;DHT22;41176;44.032;20.900;2023-11-22T00:03:37;10.10;99.90
50544;DHT22;41176;44.032;20.900;2023-11-22T00:06:04;10.20;99.90
50544;DHT22;41176;44.032;20.900;2023-11-22T00:08:30;10.20;99.90
50544;DHT22;41176;44.032;20.900;2023-11-22T00:10:56;10.20;99.90
50544;DHT22;41176;44.032;20.900;2023-11-22T00:13:21;10.20;99.90
50544;DHT22;41176;44.032;20.900;2023-11-22T00:15:47;10.20;99.90
50544;DHT22;41176;44.032;20.900;2023-11-22T00:18:16;10.20;99.90
50544;DHT22;41176;44.032;20.900;2023-11-22T00:20:41;10.20;99.90
50544;DHT22;41176;44.032;20.900;2023-11-22T00:23:07;10.20;99.90
50544;DHT22;41176;44.032;20.900;2023-11-22T00:25:33;10.20;99.90
50544;DHT22;41176;44.032;20.900;2023-11-22T00:27:59;10.10;99.90
50544;DHT22;41176;44.032;20.900;2023-11-22T00:30:25;10.20;99.90
50544;DHT22;41176;44.032;20.900;2023-11-22T00:32:51;10.20;99.90
50544;DHT22;41176;44.032;20.900;2023-11-22T00:35:17;10.20;99.90
50544;DHT22;41176;44.032;20.900;2023-11-22T00:37:43;10.10;99.90
50544;DHT22;41176;44.032;20.900;2023-11-22T00:40:09;10.10;99.90
50544;DHT22;41176;44.032;20.900;2023-11-22T00:42:38;10.10;99.90
50544;DHT22;41176;44.032;20.900;2023-11-22T00:45:06;10.10;99.90
50544;DHT22;41176;44.032;20.900;2023-11-22T00:47:32;10.10;99.90
50544;DHT22;41176;44.032;20.900;2023-11-22T00:50:00;10.00;99.90
50544;DHT22;41176;44.032;20.900;2023-11-22T00:52:26;10.00;99.90
50544;DHT22;41176;44.032;20.900;2023-11-22T00:54:52;10.00;99.90
50544;DHT22;41176;44.032;20.900;2023-11-22T00:57:18;10.00;99.90
50544;DHT22;41176;44.032;20.900;2023-11-22T00:59:44;10.00;99.90
50544;DHT22;41176;44.032;20.900;2023-11-22T01:02:10;10.00;99.90
50544;DHT22;41176;44.032;20.900;2023-11-22T01:04:35;9.80;99.90
50544;DHT22;41176;44.032;20.900;2023-11-22T01:07:03;9.90;99.90
50544;DHT22;41176;44.032;20.900;2023-11-22T01:09:37;9.90;99.90
50544;DHT22;41176;44.032;20.900;2023-11-22T01:12:03;9.90;99.90
50544;DHT22;41176;44.032;20.900;2023-11-22T01:14:29;9.90;99.90
50544;DHT22;41176;44.032;20.900;2023-11-22T01:16:55;9.90;99.90
50544;DHT22;41176;44.032;20.900;2023-11-22T01:19:21;9.90;99.90
50544;DHT22;41176;44.032;20.900;2023-11-22T01:21:47;9.90;99.90
50544;DHT22;41176;44.032;20.900;2023-11-22T01:24:13;9.80;99.90
50544;DHT22;41176;44.032;20.900;2023-11-22T01:26:39;9.70;99.90
50544;DHT22;41176;44.032;20.900;2023-11-22T01:29:05;9.70;99.90
50544;DHT22;41176;44.032;20.900;2023-11-22T01:31:30;9.60;99.90
50544;DHT22;41176;44.032;20.900;2023-11-22T01:33:58;9.50;99.90
50544;DHT22;41176;44.032;20.900;2023-11-22T01:36:24;9.50;99.90
50544;DHT22;41176;44.032;20.900;2023-11-22T01:38:51;9.40;99.90
50544;DHT22;41176;44.032;20.900;2023-11-22T01:41:17;9.40;99.90
50544;DHT22;41176;44.032;20.900;2023-11-22T01:43:43;9.50;99.90
50544;DHT22;41176;44.032;20.900;2023-11-22T01:46:13;9.50;99.90
50544;DHT22;41176;44.032;20.900;2023-11-22T01:48:42;9.60;99.90
50544;DHT22;41176;44.032;20.900;2023-11-22T01:51:08;9.60;99.90
50544;DHT22;41176;44.032;20.900;2023-11-22T01:53:34;9.60;99.90
50544;DHT22;41176;44.032;20.900;2023-11-22T01:56:01;9.70;99.90
50544;DHT22;41176;44.032;20.900;2023-11-22T01:58:27;9.60;99.90
50544;DHT22;41176;44.032;20.900;2023-11-22T02:00:53;9.60;99.90
50544;DHT22;41176;44.032;20.900;2023-11-22T02:03:19;9.60;99.90
50544;DHT22;41176;44.032;20.900;2023-11-22T02:05:46;9.60;99.90
50544;DHT22;41176;44.032;20.900;2023-11-22T02:08:13;9.60;99.90
50544;DHT22;41176;44.032;20.900;2023-11-22T02:10:39;9.50;99.90
50544;DHT22;41176;44.032;20.900;2023-11-22T02:13:06;9.60;99.90
50544;DHT22;41176;44.032;20.900;2023-11-22T02:15:37;9.60;99.90
50544;DHT22;41176;44.032;20.900;2023-11-22T02:18:03;9.60;99.90
50544;DHT22;41176;44.032;20.900;2023-11-22T02:20:31;9.70;99.90
50544;DHT22;41176;44.032;20.900;2023-11-22T02:22:57;9.70;99.90
50544;DHT22;41176;44.032;20.900;2023-11-22T02:25:23;9.80;99.90
50544;DHT22;41176;44.032;20.900;2023-11-22T02:27:49;9.80;99.90
50544;DHT22;41176;44.032;20.900;2023-11-22T02:30:14;9.80;99.90
50544;DHT22;41176;44.032;20.900;2023-11-22T02:32:42;9.80;99.90
50544;DHT22;41176;44.032;20.900;2023-11-22T02:35:08;9.80;99.90
50544;DHT22;41176;44.032;20.900;2023-11-22T02:37:34;9.80;99.90
50544;DHT22;41176;44.032;20.900;2023-11-22T02:42:30;9.90;99.90
50544;DHT22;41176;44.032;20.900;2023-11-22T02:44:55;9.90;99.90
50544;DHT22;41176;44.032;20.900;2023-11-22T02:47:22;10.00;99.90
50544;DHT22;41176;44.032;20.900;2023-11-22T02:49:48;10.00;99.90
50544;DHT22;41176;44.032;20.900;2023-11-22T02:52:14;10.00;99.90
50544;DHT22;41176;44.032;20.900;2023-11-22T02:54:49;10.00;99.90
50544;DHT22;41176;44.032;20.900;2023-11-22T02:57:15;10.10;99.90
50544;DHT22;41176;44.032;20.900;2023-11-22T02:59:44;10.00;99.90
50544;DHT22;41176;44.032;20.900;2023-11-22T03:02:10;10.10;99.90
50544;DHT22;41176;44.032;20.900;2023-11-22T03:04:37;10.10;99.90
50544;DHT22;41176;44.032;20.900;2023-11-22T03:07:03;10.10;99.90
50544;DHT22;41176;44.032;20.900;2023-11-22T03:09:29;10.10;99.90
50544;DHT22;41176;44.032;20.900;2023-11-22T03:11:55;10.10;99.90
50544;DHT22;41176;44.032;20.900;2023-11-22T03:14:21;10.10;99.90
50544;DHT22;41176;44.032;20.900;2023-11-22T03:16:48;10.10;99.90
50544;DHT22;41176;44.032;20.900;2023-11-22T03:19:14;10.00;99.90
50544;DHT22;41176;44.032;20.900;2023-11-22T03:21:40;10.00;99.90
50544;DHT22;41176;44.032;20.900;2023-11-22T03:24:09;10.00;99.90
50544;DHT22;41176;44.032;20.900;2023-11-22T03:26:35;10.00;99.90
50544;DHT22;41176;44.032;20.900;2023-11-22T03:29:01;10.00;99.90
50544;DHT22;41176;44.032;20.900;2023-11-22T03:31:28;10.00;99.90
50544;DHT22;41176;44.032;20.900;2023-11-22T03:33:57;10.00;99.90
50544;DHT22;41176;44.032;20.900;2023-11-22T03:36:23;10.00;99.90
50544;DHT22;41176;44.032;20.900;2023-11-22T03:38:50;10.00;99.90
50544;DHT22;41176;44.032;20.900;2023-11-22T03:41:16;10.10;99.90
50544;DHT22;41176;44.032;20.900;2023-11-22T03:43:44;10.00;99.90
50544;DHT22;41176;44.032;20.900;2023-11-22T03:46:10;10.00;99.90
50544;DHT22;41176;44.032;20.900;2023-11-22T03:48:37;9.90;99.90
50544;DHT22;41176;44.032;20.900;2023-11-22T03:51:03;9.90;99.90
50544;DHT22;41176;44.032;20.900;2023-11-22T03:53:28;10.00;99.90
50544;DHT22;41176;44.032;20.900;2023-11-22T03:55:55;10.00;99.90
50544;DHT22;41176;44.032;20.900;2023-11-22T03:58:20;10.00;99.90
50544;DHT22;41176;44.032;20.900;2023-11-22T04:00:46;10.00;99.90
50544;DHT22;41176;44.032;20.900;2023-11-22T04:03:12;10.00;99.90
50544;DHT22;41176;44.032;20.900;2023-11-22T04:05:38;10.00;99.90
50544;DHT22;41176;44.032;20.900;2023-11-22T04:08:04;10.00;99.90
50544;DHT22;41176;44.032;20.900;2023-11-22T04:10:30;10.00;99.90
50544;DHT22;41176;44.032;20.900;2023-11-22T04:12:56;10.00;99.90
50544;DHT22;41176;44.032;20.900;2023-11-22T04:15:22;10.00;99.90
50544;DHT22;41176;44.032;20.900;2023-11-22T04:17:48;10.00;99.90
50544;DHT22;41176;44.032;20.900;2023-11-22T04:20:14;10.00;99.90
50544;DHT22;41176;44.032;20.900;2023-11-22T04:22:41;10.00;99.90
50544;DHT22;41176;44.032;20.900;2023-11-22T04:25:07;9.90;99.90
50544;DHT22;41176;44.032;20.900;2023-11-22T04:27:34;9.90;99.90
50544;DHT22;41176;44.032;20.900;2023-11-22T04:30:00;9.90;99.90
50544;DHT22;41176;44.032;20.900;2023-11-22T04:32:26;9.90;99.90
50544;DHT22;41176;44.032;20.900;2023-11-22T04:34:52;10.00;99.90
50544;DHT22;41176;44.032;20.900;2023-11-22T04:37:17;10.00;99.90
50544;DHT22;41176;44.032;20.900;2023-11-22T04:39:43;10.00;99.90
50544;DHT22;41176;44.032;20.900;2023-11-22T04:42:09;10.00;99.90
50544;DHT22;41176;44.032;20.900;2023-11-22T04:44:35;10.00;99.90
50544;DHT22;41176;44.032;20.900;2023-11-22T04:47:01;10.10;99.90
50544;DHT22;41176;44.032;20.900;2023-11-22T04:49:26;10.10;99.90
50544;DHT22;41176;44.032;20.900;2023-11-22T04:51:52;10.10;99.90
50544;DHT22;41176;44.032;20.900;2023-11-22T04:54:18;10.20;99.90
50544;DHT22;41176;44.032;20.900;2023-11-22T04:56:43;10.10;99.90
50544;DHT22;41176;44.032;20.900;2023-11-22T04:59:09;10.10;99.90
50544;DHT22;41176;44.032;20.900;2023-11-22T05:01:35;10.10;99.90
50544;DHT22;41176;44.032;20.900;2023-11-22T05:04:01;10.00;99.90
50544;DHT22;41176;44.032;20.900;2023-11-22T05:06:27;10.00;99.90
50544;DHT22;41176;44.032;20.900;2023-11-22T05:08:54;10.00;99.90
50544;DHT22;41176;44.032;20.900;2023-11-22T05:11:21;10.00;99.90
50544;DHT22;41176;44.032;20.900;2023-11-22T05:13:47;10.00;99.90
50544;DHT22;41176;44.032;20.900;2023-11-22T05:16:12;10.00;99.90
50544;DHT22;41176;44.032;20.900;2023-11-22T05:18:38;10.00;99.90
50544;DHT22;41176;44.032;20.900;2023-11-22T05:21:04;9.90;99.90
50544;DHT22;41176;44.032;20.900;2023-11-22T05:23:30;9.80;99.90
50544;DHT22;41176;44.032;20.900;2023-11-22T05:25:59;9.80;99.90
50544;DHT22;41176;44.032;20.900;2023-11-22T05:28:29;9.70;99.90
50544;DHT22;41176;44.032;20.900;2023-11-22T05:30:54;9.60;99.90
50544;DHT22;41176;44.032;20.900;2023-11-22T05:33:20;9.70;99.90
50544;DHT22;41176;44.032;20.900;2023-11-22T05:35:46;9.70;99.90
50544;DHT22;41176;44.032;20.900;2023-11-22T05:38:11;9.70;99.90
50544;DHT22;41176;44.032;20.900;2023-11-22T05:40:37;9.80;99.90
50544;DHT22;41176;44.032;20.900;2023-11-22T05:43:04;9.80;99.90
50544;DHT22;41176;44.032;20.900;2023-11-22T05:45:30;9.80;99.90
50544;DHT22;41176;44.032;20.900;2023-11-22T05:47:56;9.80;99.90
50544;DHT22;41176;44.032;20.900;2023-11-22T05:50:21;9.70;99.90
50544;DHT22;41176;44.032;20.900;2023-11-22T05:52:47;9.60;99.90
50544;DHT22;41176;44.032;20.900;2023-11-22T05:55:13;9.60;99.90
50544;DHT22;41176;44.032;20.900;2023-11-22T05:57:40;9.60;99.90
50544;DHT22;41176;44.032;20.900;2023-11-22T06:00:07;9.60;99.90
50544;DHT22;41176;44.032;20.900;2023-11-22T06:02:33;9.60;99.90
50544;DHT22;41176;44.032;20.900;2023-11-22T06:04:58;9.60;99.90
50544;DHT22;41176;44.032;20.900;2023-11-22T06:07:24;9.50;99.90
50544;DHT22;41176;44.032;20.900;2023-11-22T06:09:50;9.50;99.90
50544;DHT22;41176;44.032;20.900;2023-11-22T06:12:16;9.40;99.90
50544;DHT22;41176;44.032;20.900;2023-11-22T06:14:41;9.40;99.90
50544;DHT22;41176;44.032;20.900;2023-11-22T06:17:07;9.30;99.90
50544;DHT22;41176;44.032;20.900;2023-11-22T06:19:33;9.30;99.90
50544;DHT22;41176;44.032;20.900;2023-11-22T06:21:59;9.30;99.90
50544;DHT22;41176;44.032;20.900;2023-11-22T06:24:27;9.30;99.90
50544;DHT22;41176;44.032;20.900;2023-11-22T06:26:52;9.40;99.90
50544;DHT22;41176;44.032;20.900;2023-11-22T06:29:18;9.40;99.90
50544;DHT22;41176;44.032;20.900;2023-11-22T06:31:45;9.40;99.90
50544;DHT22;41176;44.032;20.900;2023-11-22T06:34:10;9.40;99.90
50544;DHT22;41176;44.032;20.900;2023-11-22T06:36:36;9.40;99.90
50544;DHT22;41176;44.032;20.900;2023-11-22T06:39:02;9.40;99.90
50544;DHT22;41176;44.032;20.900;2023-11-22T06:41:29;9.40;99.90
50544;DHT22;41176;44.032;20.900;2023-11-22T06:43:55;9.40;99.90
50544;DHT22;41176;44.032;20.900;2023-11-22T06:46:21;9.50;99.90
50544;DHT22;41176;44.032;20.900;2023-11-22T06:48:48;9.40;99.90
50544;DHT22;41176;44.032;20.900;2023-11-22T06:51:15;9.40;99.90
50544;DHT22;41176;44.032;20.900;2023-11-22T06:53:41;9.40;99.90
50544;DHT22;41176;44.032;20.900;2023-11-22T06:56:07;9.40;99.90
50544;DHT22;41176;44.032;20.900;2023-11-22T06:58:33;9.40;99.90
50544;DHT22;41176;44.032;20.900;2023-11-22T07:00:58;9.50;99.90
50544;DHT22;41176;44.032;20.900;2023-11-22T07:03:26;9.60;99.90
50544;DHT22;41176;44.032;20.900;2023-11-22T07:05:52;9.50;99.90
50544;DHT22;41176;44.032;20.900;2023-11-22T07:08:17;9.50;99.90
50544;DHT22;41176;44.032;20.900;2023-11-22T07:10:44;9.60;99.90
50544;DHT22;41176;44.032;20.900;2023-11-22T07:13:11;9.60;99.90
50544;DHT22;41176;44.032;20.900;2023-11-22T07:15:38;9.60;99.90
50544;DHT22;41176;44.032;20.900;2023-11-22T07:18:04;9.60;99.90
50544;DHT22;41176;44.032;20.900;2023-11-22T07:20:30;9.60;99.90
50544;DHT22;41176;44.032;20.900;2023-11-22T07:22:56;9.60;99.90
50544;DHT22;41176;44.032;20.900;2023-11-22T07:25:23;9.60;99.90
50544;DHT22;41176;44.032;20.900;2023-11-22T07:27:52;9.70;99.90
50544;DHT22;41176;44.032;20.900;2023-11-22T07:30:20;9.60;99.90
50544;DHT22;41176;44.032;20.900;2023-11-22T07:32:51;9.70;99.90
50544;DHT22;41176;44.032;20.900;2023-11-22T07:35:19;9.70;99.90
50544;DHT22;41176;44.032;20.900;2023-11-22T07:37:46;9.70;99.90
50544;DHT22;41176;44.032;20.900;2023-11-22T07:40:13;9.60;99.90
50544;DHT22;41176;44.032;20.900;2023-11-22T07:42:40;9.70;99.90
50544;DHT22;41176;44.032;20.900;2023-11-22T07:45:06;9.60;99.90
50544;DHT22;41176;44.032;20.900;2023-11-22T07:47:32;9.70;99.90
50544;DHT22;41176;44.032;20.900;2023-11-22T07:49:58;9.60;99.90
50544;DHT22;41176;44.032;20.900;2023-11-22T07:52:24;9.60;99.90
50544;DHT22;41176;44.032;20.900;2023-11-22T07:54:58;9.70;99.90
50544;DHT22;41176;44.032;20.900;2023-11-22T07:57:25;9.60;99.90
50544;DHT22;41176;44.032;20.900;2023-11-22T07:59:51;9.60;99.90
50544;DHT22;41176;44.032;20.900;2023-11-22T08:02:21;9.60;99.90
50544;DHT22;41176;44.032;20.900;2023-11-22T08:04:47;9.60;99.90
50544;DHT22;41176;44.032;20.900;2023-11-22T08:07:15;9.60;99.90
50544;DHT22;41176;44.032;20.900;2023-11-22T08:09:42;9.70;99.90
50544;DHT22;41176;44.032;20.900;2023-11-22T08:12:09;9.60;99.90
50544;DHT22;41176;44.032;20.900;2023-11-22T08:14:37;9.60;99.90
50544;DHT22;41176;44.032;20.900;2023-11-22T08:17:03;9.70;99.90
50544;DHT22;41176;44.032;20.900;2023-11-22T08:19:29;9.60;99.90
50544;DHT22;41176;44.032;20.900;2023-11-22T08:21:55;9.60;99.90
50544;DHT22;41176;44.032;20.900;2023-11-22T08:24:21;9.70;99.90
50544;DHT22;41176;44.032;20.900;2023-11-22T08:26:46;9.80;99.90
50544;DHT22;41176;44.032;20.900;2023-11-22T08:29:12;9.80;99.90
50544;DHT22;41176;44.032;20.900;2023-11-22T08:31:40;9.80;99.90
50544;DHT22;41176;44.032;20.900;2023-11-22T08:34:06;9.80;99.90
50544;DHT22;41176;44.032;20.900;2023-11-22T08:36:35;9.70;99.90
50544;DHT22;41176;44.032;20.900;2023-11-22T08:39:02;9.70;99.90
50544;DHT22;41176;44.032;20.900;2023-11-22T08:41:29;9.80;99.90
50544;DHT22;41176;44.032;20.900;2023-11-22T08:43:56;9.80;99.90
50544;DHT22;41176;44.032;20.900;2023-11-22T08:46:22;9.70;99.90
50544;DHT22;41176;44.032;20.900;2023-11-22T08:48:49;9.80;99.90
50544;DHT22;41176;44.032;20.900;2023-11-22T08:51:16;9.80;99.90
50544;DHT22;41176;44.032;20.900;2023-11-22T08:53:43;9.90;99.90
50544;DHT22;41176;44.032;20.900;2023-11-22T08:56:10;9.90;99.90
50544;DHT22;41176;44.032;20.900;2023-11-22T08:58:37;10.00;99.90
50544;DHT22;41176;44.032;20.900;2023-11-22T09:01:04;10.00;99.90
50544;DHT22;41176;44.032;20.900;2023-11-22T09:03:31;10.00;99.90
50544;DHT22;41176;44.032;20.900;2023-11-22T09:05:58;10.10;99.90
50544;DHT22;41176;44.032;20.900;2023-11-22T09:08:23;10.00;99.90
50544;DHT22;41176;44.032;20.900;2023-11-22T09:10:49;10.10;99.90
50544;DHT22;41176;44.032;20.900;2023-11-22T09:13:16;10.10;99.90
50544;DHT22;41176;44.032;20.900;2023-11-22T09:15:42;10.20;99.90
50544;DHT22;41176;44.032;20.900;2023-11-22T09:18:13;10.20;99.90
50544;DHT22;41176;44.032;20.900;2023-11-22T09:20:39;10.20;99.90
50544;DHT22;41176;44.032;20.900;2023-11-22T09:23:09;10.30;99.90
50544;DHT22;41176;44.032;20.900;2023-11-22T09:25:35;10.30;99.90
50544;DHT22;41176;44.032;20.900;2023-11-22T09:28:01;10.30;99.90
50544;DHT22;41176;44.032;20.900;2023-11-22T09:30:29;10.40;99.90
50544;DHT22;41176;44.032;20.900;2023-11-22T09:33:11;10.40;99.90
50544;DHT22;41176;44.032;20.900;2023-11-22T09:35:38;10.50;99.90
50544;DHT22;41176;44.032;20.900;2023-11-22T09:38:06;10.50;99.90
50544;DHT22;41176;44.032;20.900;2023-11-22T09:40:35;10.50;99.90
50544;DHT22;41176;44.032;20.900;2023-11-22T09:43:02;10.50;99.90
50544;DHT22;41176;44.032;20.900;2023-11-22T09:45:29;10.60;99.90
50544;DHT22;41176;44.032;20.900;2023-11-22T09:47:56;10.60;99.90
50544;DHT22;41176;44.032;20.900;2023-11-22T09:50:39;10.60;99.90
50544;DHT22;41176;44.032;20.900;2023-11-22T09:53:11;10.60;99.90
50544;DHT22;41176;44.032;20.900;2023-11-22T09:55:41;10.60;99.90
50544;DHT22;41176;44.032;20.900;2023-11-22T09:58:12;10.60;99.90
50544;DHT22;41176;44.032;20.900;2023-11-22T10:00:40;10.60;99.90
50544;DHT22;41176;44.032;20.900;2023-11-22T10:03:06;10.60;99.90
50544;DHT22;41176;44.032;20.900;2023-11-22T10:05:33;10.60;99.90
50544;DHT22;41176;44.032;20.900;2023-11-22T10:08:00;10.60;99.90
50544;DHT22;41176;44.032;20.900;2023-11-22T10:10:26;10.60;99.90
50544;DHT22;41176;44.032;20.900;2023-11-22T10:12:55;10.60;99.90
50544;DHT22;41176;44.032;20.900;2023-11-22T10:15:23;10.60;99.90
50544;DHT22;41176;44.032;20.900;2023-11-22T10:17:59;10.70;99.90
50544;DHT22;41176;44.032;20.900;2023-11-22T10:20:38;10.60;99.90
50544;DHT22;41176;44.032;20.900;2023-11-22T10:23:11;10.60;99.90
50544;DHT22;41176;44.032;20.900;2023-11-22T10:25:44;10.60;99.90
50544;DHT22;41176;44.032;20.900;2023-11-22T10:28:11;10.70;99.90
50544;DHT22;41176;44.032;20.900;2023-11-22T10:30:36;10.70;99.90
50544;DHT22;41176;44.032;20.900;2023-11-22T10:33:03;10.70;99.90
50544;DHT22;41176;44.032;20.900;2023-11-22T10:35:29;10.70;99.90
50544;DHT22;41176;44.032;20.900;2023-11-22T10:37:55;10.70;99.90
50544;DHT22;41176;44.032;20.900;2023-11-22T10:40:22;10.70;99.90
50544;DHT22;41176;44.032;20.900;2023-11-22T10:42:48;10.70;99.90
50544;DHT22;41176;44.032;20.900;2023-11-22T10:45:17;10.80;99.90
50544;DHT22;41176;44.032;20.900;2023-11-22T10:47:44;10.80;99.90
50544;DHT22;41176;44.032;20.900;2023-11-22T10:50:11;10.80;99.90
50544;DHT22;41176;44.032;20.900;2023-11-22T10:52:41;10.80;99.90
50544;DHT22;41176;44.032;20.900;2023-11-22T10:55:11;10.80;99.90
50544;DHT22;41176;44.032;20.900;2023-11-22T10:57:41;10.80;99.90
50544;DHT22;41176;44.032;20.900;2023-11-22T11:00:10;10.80;99.90
50544;DHT22;41176;44.032;20.900;2023-11-22T11:02:44;10.90;99.90
50544;DHT22;41176;44.032;20.900;2023-11-22T11:05:21;10.90;99.90
50544;DHT22;41176;44.032;20.900;2023-11-22T11:08:08;10.90;99.90
50544;DHT22;41176;44.032;20.900;2023-11-22T11:10:42;10.90;99.90
50544;DHT22;41176;44.032;20.900;2023-11-22T11:13:09;10.90;99.90
50544;DHT22;41176;44.032;20.900;2023-11-22T11:15:36;10.80;99.90
50544;DHT22;41176;44.032;20.900;2023-11-22T11:18:03;10.90;99.90
50544;DHT22;41176;44.032;20.900;2023-11-22T11:20:51;10.90;99.90
50544;DHT22;41176;44.032;20.900;2023-11-22T11:23:22;10.90;99.90
50544;DHT22;41176;44.032;20.900;2023-11-22T11:25:52;10.90;99.90
50544;DHT22;41176;44.032;20.900;2023-11-22T11:28:19;10.80;99.90
50544;DHT22;41176;44.032;20.900;2023-11-22T11:30:48;10.80;99.90
50544;DHT22;41176;44.032;20.900;2023-11-22T11:33:17;10.80;99.90
50544;DHT22;41176;44.032;20.900;2023-11-22T11:35:49;10.80;99.90
50544;DHT22;41176;44.032;20.900;2023-11-22T11:38:19;10.90;99.90
50544;DHT22;41176;44.032;20.900;2023-11-22T11:40:47;10.80;99.90
50544;DHT22;41176;44.032;20.900;2023-11-22T11:43:12;10.90;99.90
50544;DHT22;41176;44.032;20.900;2023-11-22T11:45:42;10.90;99.90
50544;DHT22;41176;44.032;20.900;2023-11-22T11:48:13;10.90;99.90
50544;DHT22;41176;44.032;20.900;2023-11-22T11:50:41;10.90;99.90
50544;DHT22;41176;44.032;20.900;2023-11-22T11:53:08;10.90;99.90
50544;DHT22;41176;44.032;20.900;2023-11-22T11:55:33;10.90;99.90
50544;DHT22;41176;44.032;20.900;2023-11-22T11:58:09;10.90;99.90
50544;DHT22;41176;44.032;20.900;2023-11-22T12:00:36;11.00;99.90
50544;DHT22;41176;44.032;20.900;2023-11-22T12:03:07;11.00;99.90
50544;DHT22;41176;44.032;20.900;2023-11-22T12:05:35;11.00;99.90
50544;DHT22;41176;44.032;20.900;2023-11-22T12:08:01;11.00;99.90
50544;DHT22;41176;44.032;20.900;2023-11-22T12:10:28;11.00;99.90
50544;DHT22;41176;44.032;20.900;2023-11-22T12:12:54;11.00;99.90
50544;DHT22;41176;44.032;20.900;2023-11-22T12:15:20;10.90;99.90
50544;DHT22;41176;44.032;20.900;2023-11-22T12:17:48;11.00;99.90
50544;DHT22;41176;44.032;20.900;2023-11-22T12:20:16;10.90;99.90
50544;DHT22;41176;44.032;20.900;2023-11-22T12:22:44;10.90;99.90
50544;DHT22;41176;44.032;20.900;2023-11-22T12:25:11;10.90;99.90
50544;DHT22;41176;44.032;20.900;2023-11-22T12:27:43;10.90;99.90
50544;DHT22;41176;44.032;20.900;2023-11-22T12:30:28;10.90;99.90
50544;DHT22;41176;44.032;20.900;2023-11-22T12:32:55;10.90;99.90
50544;DHT22;41176;44.032;20.900;2023-11-22T12:35:22;10.90;99.90
50544;DHT22;41176;44.032;20.900;2023-11-22T12:37:49;10.90;99.90
50544;DHT22;41176;44.032;20.900;2023-11-22T12:40:15;10.90;99.90
50544;DHT22;41176;44.032;20.900;2023-11-22T12:42:50;10.90;99.90
50544;DHT22;41176;44.032;20.900;2023-11-22T12:45:24;10.90;99.90
50544;DHT22;41176;44.032;20.900;2023-11-22T12:47:53;10.90;99.90
50544;DHT22;41176;44.032;20.900;2023-11-22T12:50:38;10.90;99.90
50544;DHT22;41176;44.032;20.900;2023-11-22T12:53:16;10.90;99.90
50544;DHT22;41176;44.032;20.900;2023-11-22T12:55:46;10.90;99.90
50544;DHT22;41176;44.032;20.900;2023-11-22T12:58:17;10.90;99.90
50544;DHT22;41176;44.032;20.900;2023-11-22T13:00:45;10.90;99.90
50544;DHT22;41176;44.032;20.900;2023-11-22T13:03:11;10.90;99.90
50544;DHT22;41176;44.032;20.900;2023-11-22T13:05:38;10.90;99.90
50544;DHT22;41176;44.032;20.900;2023-11-22T13:08:04;10.90;99.90
50544;DHT22;41176;44.032;20.900;2023-11-22T13:10:31;10.90;99.90
50544;DHT22;41176;44.032;20.900;2023-11-22T13:12:58;10.90;99.90
50544;DHT22;41176;44.032;20.900;2023-11-22T13:15:24;10.90;99.90
50544;DHT22;41176;44.032;20.900;2023-11-22T13:17:52;10.90;99.90
50544;DHT22;41176;44.032;20.900;2023-11-22T13:20:27;10.90;99.90
50544;DHT22;41176;44.032;20.900;2023-11-22T13:22:56;10.90;99.90
50544;DHT22;41176;44.032;20.900;2023-11-22T13:25:22;10.90;99.90
50544;DHT22;41176;44.032;20.900;2023-11-22T13:27:52;10.90;99.90
50544;DHT22;41176;44.032;20.900;2023-11-22T13:30:19;10.90;99.90
50544;DHT22;41176;44.032;20.900;2023-11-22T13:32:49;10.90;99.90
50544;DHT22;41176;44.032;20.900;2023-11-22T13:35:15;10.90;99.90
50544;DHT22;41176;44.032;20.900;2023-11-22T13:37:46;10.90;99.90
50544;DHT22;41176;44.032;20.900;2023-11-22T13:40:17;10.90;99.90
50544;DHT22;41176;44.032;20.900;2023-11-22T13:42:52;10.90;99.90
50544;DHT22;41176;44.032;20.900;2023-11-22T13:45:19;10.90;99.90
50544;DHT22;41176;44.032;20.900;2023-11-22T13:47:47;10.90;99.90
50544;DHT22;41176;44.032;20.900;2023-11-22T13:50:14;10.90;99.90
50544;DHT22;41176;44.032;20.900;2023-11-22T13:52:46;10.90;99.90
50544;DHT22;41176;44.032;20.900;2023-11-22T13:55:14;10.80;99.90
50544;DHT22;41176;44.032;20.900;2023-11-22T13:57:41;10.80;99.90
50544;DHT22;41176;44.032;20.900;2023-11-22T14:00:08;10.80;99.90
50544;DHT22;41176;44.032;20.900;2023-11-22T14:02:39;10.80;99.90
50544;DHT22;41176;44.032;20.900;2023-11-22T14:05:06;10.80;99.90
50544;DHT22;41176;44.032;20.900;2023-11-22T14:07:36;10.80;99.90
50544;DHT22;41176;44.032;20.900;2023-11-22T14:10:03;10.80;99.90
50544;DHT22;41176;44.032;20.900;2023-11-22T14:12:29;10.70;99.90
50544;DHT22;41176;44.032;20.900;2023-11-22T14:14:56;10.70;99.90
50544;DHT22;41176;44.032;20.900;2023-11-22T14:17:22;10.70;99.90
50544;DHT22;41176;44.032;20.900;2023-11-22T14:19:50;10.70;99.90
50544;DHT22;41176;44.032;20.900;2023-11-22T14:22:15;10.70;99.90
50544;DHT22;41176;44.032;20.900;2023-11-22T14:24:43;10.70;99.90
50544;DHT22;41176;44.032;20.900;2023-11-22T14:27:11;10.60;99.90
50544;DHT22;41176;44.032;20.900;2023-11-22T14:29:37;10.60;99.90
50544;DHT22;41176;44.032;20.900;2023-11-22T14:32:03;10.60;99.90
50544;DHT22;41176;44.032;20.900;2023-11-22T14:34:29;10.60;99.90
50544;DHT22;41176;44.032;20.900;2023-11-22T14:36:55;10.60;99.90
50544;DHT22;41176;44.032;20.900;2023-11-22T14:39:20;10.60;99.90
50544;DHT22;41176;44.032;20.900;2023-11-22T14:41:46;10.60;99.90
50544;DHT22;41176;44.032;20.900;2023-11-22T14:44:12;10.60;99.90
50544;DHT22;41176;44.032;20.900;2023-11-22T14:46:38;10.70;99.90
50544;DHT22;41176;44.032;20.900;2023-11-22T14:49:04;10.60;99.90
50544;DHT22;41176;44.032;20.900;2023-11-22T14:51:31;10.60;99.90
50544;DHT22;41176;44.032;20.900;2023-11-22T14:53:59;10.60;99.90
50544;DHT22;41176;44.032;20.900;2023-11-22T14:56:25;10.60;99.90
50544;DHT22;41176;44.032;20.900;2023-11-22T14:58:50;10.50;99.90
50544;DHT22;41176;44.032;20.900;2023-11-22T15:01:22;10.50;99.90
50544;DHT22;41176;44.032;20.900;2023-11-22T15:03:52;10.40;99.90
50544;DHT22;41176;44.032;20.900;2023-11-22T15:06:22;10.50;99.90
50544;DHT22;41176;44.032;20.900;2023-11-22T15:08:48;10.50;99.90
50544;DHT22;41176;44.032;20.900;2023-11-22T15:11:17;10.40;99.90
50544;DHT22;41176;44.032;20.900;2023-11-22T15:13:44;10.40;99.90
50544;DHT22;41176;44.032;20.900;2023-11-22T15:16:09;10.40;99.90
50544;DHT22;41176;44.032;20.900;2023-11-22T15:18:38;10.40;99.90
50544;DHT22;41176;44.032;20.900;2023-11-22T15:21:07;10.40;99.90
50544;DHT22;41176;44.032;20.900;2023-11-22T15:23:33;10.30;99.90
50544;DHT22;41176;44.032;20.900;2023-11-22T15:25:59;10.30;99.90